Time;durP1;ratioP1;P1;durP2;ratioP2;P2;SDS_P1;SDS_P2;PMS_P1;PMS_P2;Temp;Humidity;BMP_temperature;BMP_pressure;BME280_temperature;BME280_humidity;BME280_pressure;Samples;Min_cycle;Max_cycle;Signal;HPM_P1;HPM_P2
2023/08/06 00:01:21;;;;;;;7.13;1.50;;;;;;;;;;6124711;23;20029;-44
2023/08/06 00:03:48;;;;;;;5.72;1.75;;;;;;;;;;6124827;23;20516;-43
2023/08/06 00:06:16;;;;;;;6.27;1.60;;;;;;;;;;6124822;23;20013;-45
2023/08/06 00:08:44;;;;;;;5.45;1.52;;;;;;;;;;6125480;23;20017;-45
2023/08/06 00:11:13;;;;;;;6.18;1.77;;;;;;;;;;6124636;23;20404;-44
2023/08/06 00:13:41;;;;;;;5.97;1.50;;;;;;;;;;6123403;23;20318;-46
2023/08/06 00:16:10;;;;;;;13.63;1.92;;;;;;;;;;6150044;23;20651;-45
2023/08/06 00:18:37;;;;;;;6.10;1.40;;;;;;;;;;6123415;23;20025;-43
2023/08/06 00:21:05;;;;;;;5.18;1.20;;;;;;;;;;6123263;23;20024;-44
2023/08/06 00:23:33;;;;;;;5.30;1.38;;;;;;;;;;6119893;23;20018;-43
2023/08/06 00:26:01;;;;;;;5.45;1.55;;;;;;;;;;6128976;23;20076;-44
2023/08/06 00:28:30;;;;;;;5.90;1.98;;;;;;;;;;6118469;23;20044;-43
2023/08/06 00:30:59;;;;;;;8.90;1.87;;;;;;;;;;6124677;23;20021;-46
2023/08/06 00:33:26;;;;;;;5.45;1.40;;;;;;;;;;6139165;23;20108;-46
2023/08/06 00:35:54;;;;;;;8.18;1.70;;;;;;;;;;6126557;23;20118;-44
2023/08/06 00:38:22;;;;;;;7.13;2.03;;;;;;;;;;6128212;23;20021;-44
2023/08/06 00:40:49;;;;;;;8.38;3.20;;;;;;;;;;6119931;23;20020;-44
2023/08/06 00:43:17;;;;;;;7.30;2.00;;;;;;;;;;6128818;23;20021;-47
2023/08/06 00:45:46;;;;;;;8.70;1.90;;;;;;;;;;6125267;23;20017;-43
2023/08/06 00:48:14;;;;;;;7.65;1.95;;;;;;;;;;6144094;23;20076;-43
2023/08/06 00:50:42;;;;;;;6.93;1.75;;;;;;;;;;6127160;23;20024;-46
2023/08/06 00:53:09;;;;;;;7.57;2.03;;;;;;;;;;6119337;23;20196;-44
2023/08/06 00:55:37;;;;;;;6.67;2.03;;;;;;;;;;6127608;23;20018;-42
2023/08/06 00:58:05;;;;;;;6.60;2.10;;;;;;;;;;6121824;23;20028;-43
2023/08/06 01:00:33;;;;;;;6.03;1.85;;;;;;;;;;6124520;23;20044;-42
2023/08/06 01:03:02;;;;;;;7.00;1.65;;;;;;;;;;6124588;23;20802;-42
2023/08/06 01:05:30;;;;;;;7.32;2.10;;;;;;;;;;6078969;23;20218;-42
2023/08/06 01:08:06;;;;;;;8.33;1.93;;;;;;;;;;6127701;23;20018;-43
2023/08/06 01:10:42;;;;;;;5.38;1.90;;;;;;;;;;6122892;23;20017;-43
2023/08/06 01:13:14;;;;;;;6.75;1.98;;;;;;;;;;6129610;23;20642;-42
2023/08/06 01:15:44;;;;;;;6.75;2.10;;;;;;;;;;6125593;23;20084;-42
2023/08/06 01:18:14;;;;;;;6.28;2.33;;;;;;;;;;6123749;23;20037;-43
2023/08/06 01:20:43;;;;;;;6.40;1.87;;;;;;;;;;6125920;23;20026;-42
2023/08/06 01:23:10;;;;;;;6.03;2.13;;;;;;;;;;6128257;23;20025;-43
2023/08/06 01:25:44;;;;;;;6.40;1.90;;;;;;;;;;6126825;23;20013;-42
2023/08/06 01:28:19;;;;;;;7.47;2.10;;;;;;;;;;6124363;23;20477;-42
2023/08/06 01:30:48;;;;;;;6.57;2.08;;;;;;;;;;6113960;23;20025;-45
2023/08/06 01:33:20;;;;;;;7.93;2.30;;;;;;;;;;6130990;23;20013;-42
2023/08/06 01:35:50;;;;;;;9.63;2.50;;;;;;;;;;6127318;23;20344;-42
2023/08/06 01:38:18;;;;;;;7.55;2.22;;;;;;;;;;6123334;23;20456;-44
2023/08/06 01:40:45;;;;;;;8.65;2.08;;;;;;;;;;6119771;23;20305;-43
2023/08/06 01:43:13;;;;;;;6.57;2.20;;;;;;;;;;6130441;23;20014;-45
2023/08/06 01:45:40;;;;;;;9.73;2.00;;;;;;;;;;6126978;23;20013;-43
2023/08/06 01:48:08;;;;;;;7.85;1.65;;;;;;;;;;6130849;23;20592;-44
2023/08/06 01:50:37;;;;;;;7.78;1.70;;;;;;;;;;6126053;23;20080;-44
2023/08/06 01:53:06;;;;;;;7.68;2.03;;;;;;;;;;6136485;23;20018;-48
2023/08/06 01:55:33;;;;;;;7.68;1.98;;;;;;;;;;6126414;23;20507;-43
2023/08/06 01:58:01;;;;;;;7.60;2.77;;;;;;;;;;6134459;23;20024;-43
2023/08/06 02:00:28;;;;;;;8.63;1.92;;;;;;;;;;6125513;23;20022;-44
2023/08/06 02:02:56;;;;;;;7.32;2.10;;;;;;;;;;6133178;23;20018;-48
2023/08/06 02:05:24;;;;;;;6.85;2.10;;;;;;;;;;6131024;23;20013;-46
2023/08/06 02:07:52;;;;;;;6.30;2.10;;;;;;;;;;6127180;23;20036;-43
2023/08/06 02:10:21;;;;;;;6.00;2.00;;;;;;;;;;6133337;23;20068;-43
2023/08/06 02:12:48;;;;;;;7.47;2.05;;;;;;;;;;6122458;23;20379;-44
2023/08/06 02:15:16;;;;;;;6.80;2.35;;;;;;;;;;6131993;23;20079;-42
2023/08/06 02:17:44;;;;;;;8.70;2.00;;;;;;;;;;6134809;23;20017;-43
2023/08/06 02:20:12;;;;;;;9.93;1.70;;;;;;;;;;6126548;23;20444;-43
2023/08/06 02:22:40;;;;;;;6.33;1.57;;;;;;;;;;6137228;23;20152;-44
2023/08/06 02:25:13;;;;;;;5.53;1.45;;;;;;;;;;6136906;23;20359;-42
2023/08/06 02:27:42;;;;;;;6.78;1.90;;;;;;;;;;6122048;23;20029;-42
2023/08/06 02:30:10;;;;;;;8.45;2.03;;;;;;;;;;6108086;23;20108;-43
2023/08/06 02:32:37;;;;;;;7.88;2.72;;;;;;;;;;6135560;23;20013;-44
2023/08/06 02:35:05;;;;;;;6.87;1.93;;;;;;;;;;6129846;23;20062;-45
2023/08/06 02:37:34;;;;;;;12.00;2.22;;;;;;;;;;6106642;23;20025;-44
2023/08/06 02:40:01;;;;;;;9.35;2.47;;;;;;;;;;6125403;23;20022;-43
2023/08/06 02:42:29;;;;;;;6.07;1.90;;;;;;;;;;6154120;23;20395;-42
2023/08/06 02:44:58;;;;;;;8.90;1.95;;;;;;;;;;6126115;23;20018;-44
2023/08/06 02:47:26;;;;;;;6.83;1.90;;;;;;;;;;6136367;23;20053;-43
2023/08/06 02:49:55;;;;;;;5.65;1.77;;;;;;;;;;6125837;23;20017;-42
2023/08/06 02:52:23;;;;;;;8.75;2.40;;;;;;;;;;6122584;23;20028;-44
2023/08/06 02:54:51;;;;;;;6.53;1.80;;;;;;;;;;6130215;23;20024;-44
2023/08/06 02:57:19;;;;;;;7.25;1.58;;;;;;;;;;6137089;23;20460;-43
2023/08/06 02:59:46;;;;;;;8.67;2.30;;;;;;;;;;6130111;23;20025;-42
2023/08/06 03:02:15;;;;;;;6.40;1.92;;;;;;;;;;6124773;23;20072;-42
2023/08/06 03:04:43;;;;;;;6.40;1.63;;;;;;;;;;6130440;23;20022;-43
2023/08/06 03:07:10;;;;;;;6.93;1.55;;;;;;;;;;6115466;23;20659;-43
2023/08/06 03:09:38;;;;;;;6.32;1.70;;;;;;;;;;6136390;23;20064;-43
2023/08/06 03:12:06;;;;;;;6.07;1.60;;;;;;;;;;6150196;23;20024;-43
2023/08/06 03:14:34;;;;;;;7.00;1.70;;;;;;;;;;6136845;23;20013;-42
2023/08/06 03:17:02;;;;;;;5.53;1.65;;;;;;;;;;6126066;23;20013;-44
2023/08/06 03:19:33;;;;;;;6.55;1.80;;;;;;;;;;6132836;23;20020;-44
2023/08/06 03:22:01;;;;;;;5.85;1.50;;;;;;;;;;6136303;23;20014;-42
2023/08/06 03:24:29;;;;;;;7.03;1.40;;;;;;;;;;6151152;23;20017;-42
2023/08/06 03:26:57;;;;;;;6.47;1.50;;;;;;;;;;6128074;23;20017;-43
2023/08/06 03:29:24;;;;;;;6.57;1.70;;;;;;;;;;6126334;23;20013;-42
2023/08/06 03:31:52;;;;;;;7.20;2.00;;;;;;;;;;6138009;23;20021;-42
2023/08/06 03:34:20;;;;;;;9.48;1.85;;;;;;;;;;6148697;23;20045;-43
2023/08/06 03:36:49;;;;;;;5.67;1.67;;;;;;;;;;6132672;23;20344;-43
2023/08/06 03:39:17;;;;;;;5.60;1.77;;;;;;;;;;6151459;23;20018;-42
2023/08/06 03:41:46;;;;;;;6.70;1.20;;;;;;;;;;6130673;23;20024;-44
2023/08/06 03:44:13;;;;;;;5.35;1.35;;;;;;;;;;6134381;23;20060;-42
2023/08/06 03:46:41;;;;;;;5.72;1.60;;;;;;;;;;6123978;23;20017;-42
2023/08/06 03:49:09;;;;;;;5.93;1.50;;;;;;;;;;6137192;23;20014;-42
2023/08/06 03:51:36;;;;;;;5.43;1.65;;;;;;;;;;6126171;23;20358;-43
2023/08/06 03:54:05;;;;;;;7.18;1.65;;;;;;;;;;6132775;23;20196;-43
2023/08/06 03:56:33;;;;;;;6.65;1.60;;;;;;;;;;6126105;23;20348;-42
2023/08/06 03:59:01;;;;;;;5.43;1.48;;;;;;;;;;6133704;23;20017;-44
2023/08/06 04:01:28;;;;;;;5.67;1.50;;;;;;;;;;6125159;23;20029;-43
2023/08/06 04:03:56;;;;;;;5.65;1.23;;;;;;;;;;6132512;23;20018;-42
2023/08/06 04:06:23;;;;;;;4.82;1.33;;;;;;;;;;6125238;23;20017;-46
2023/08/06 04:08:51;;;;;;;7.38;1.45;;;;;;;;;;6137197;23;20420;-43
2023/08/06 04:11:20;;;;;;;6.90;1.50;;;;;;;;;;6125594;23;20014;-43
2023/08/06 04:13:48;;;;;;;5.87;1.10;;;;;;;;;;6132283;23;20017;-44
2023/08/06 04:16:15;;;;;;;6.00;1.17;;;;;;;;;;6132576;23;20550;-42
2023/08/06 04:18:45;;;;;;;7.45;1.58;;;;;;;;;;6124546;23;20483;-42
2023/08/06 04:21:13;;;;;;;6.15;2.00;;;;;;;;;;6126038;23;20024;-42
2023/08/06 04:23:40;;;;;;;6.35;1.33;;;;;;;;;;6134991;23;20021;-43
2023/08/06 04:26:08;;;;;;;6.13;1.40;;;;;;;;;;6126975;23;20064;-43
2023/08/06 04:28:37;;;;;;;4.93;1.33;;;;;;;;;;6134699;23;20017;-43
2023/08/06 04:31:05;;;;;;;7.20;1.10;;;;;;;;;;6124503;23;20333;-42
2023/08/06 04:33:32;;;;;;;5.43;1.13;;;;;;;;;;6135663;23;20447;-42
2023/08/06 04:36:00;;;;;;;5.95;1.42;;;;;;;;;;6118729;23;20570;-43
2023/08/06 04:38:28;;;;;;;6.70;1.50;;;;;;;;;;6128377;23;20018;-43
2023/08/06 04:40:55;;;;;;;8.18;1.63;;;;;;;;;;6130064;23;20352;-44
2023/08/06 04:43:24;;;;;;;7.00;1.30;;;;;;;;;;6134112;23;20510;-45
2023/08/06 04:45:54;;;;;;;5.32;1.42;;;;;;;;;;6136826;23;20032;-43
2023/08/06 04:48:22;;;;;;;6.18;1.73;;;;;;;;;;6124787;23;20068;-42
2023/08/06 04:50:51;;;;;;;5.77;1.20;;;;;;;;;;6125227;23;20356;-44
2023/08/06 04:53:18;;;;;;;5.97;1.17;;;;;;;;;;6120356;23;20738;-42
2023/08/06 04:55:46;;;;;;;5.40;1.27;;;;;;;;;;6129437;23;20052;-46
2023/08/06 04:58:14;;;;;;;5.00;1.60;;;;;;;;;;6118551;23;20044;-43
2023/08/06 05:00:42;;;;;;;6.40;1.40;;;;;;;;;;6125955;23;20019;-44
2023/08/06 05:03:11;;;;;;;5.57;1.10;;;;;;;;;;6121165;23;20498;-43
2023/08/06 05:05:40;;;;;;;6.53;1.42;;;;;;;;;;6128282;23;20097;-42
2023/08/06 05:08:08;;;;;;;4.70;1.20;;;;;;;;;;6119120;23;20100;-42
2023/08/06 05:10:36;;;;;;;7.10;1.27;;;;;;;;;;6126703;23;20029;-42
2023/08/06 05:13:03;;;;;;;7.10;1.30;;;;;;;;;;6126832;23;20021;-42
2023/08/06 05:15:31;;;;;;;5.20;1.70;;;;;;;;;;6129634;23;20021;-45
2023/08/06 05:17:59;;;;;;;6.80;1.48;;;;;;;;;;6119780;23;20021;-42
2023/08/06 05:20:28;;;;;;;5.43;1.35;;;;;;;;;;6128358;23;20032;-45
2023/08/06 05:22:55;;;;;;;5.82;1.10;;;;;;;;;;6118892;23;20027;-43
2023/08/06 05:25:23;;;;;;;8.13;1.55;;;;;;;;;;6127965;23;20040;-43
2023/08/06 05:27:53;;;;;;;4.37;1.00;;;;;;;;;;6123398;23;20544;-42
2023/08/06 05:30:20;;;;;;;5.22;1.40;;;;;;;;;;6120840;23;20029;-43
2023/08/06 05:32:48;;;;;;;7.00;1.33;;;;;;;;;;6126232;23;20088;-44
2023/08/06 05:35:16;;;;;;;5.53;1.05;;;;;;;;;;6125112;23;20449;-42
2023/08/06 05:37:45;;;;;;;6.00;1.48;;;;;;;;;;6141697;23;20022;-42
2023/08/06 05:40:13;;;;;;;5.93;1.10;;;;;;;;;;6124579;23;20017;-43
2023/08/06 05:42:41;;;;;;;4.68;1.10;;;;;;;;;;6126805;23;20017;-42
2023/08/06 05:45:10;;;;;;;6.78;1.52;;;;;;;;;;6119687;23;20044;-42
2023/08/06 05:47:37;;;;;;;8.02;1.40;;;;;;;;;;6128420;23;20036;-43
2023/08/06 05:50:22;;;;;;;4.88;1.02;;;;;;;;;;6119522;23;20017;-42
2023/08/06 05:52:51;;;;;;;4.93;1.23;;;;;;;;;;6127689;23;20486;-42
2023/08/06 05:55:19;;;;;;;4.75;0.90;;;;;;;;;;6101459;23;20036;-44
2023/08/06 05:57:47;;;;;;;6.43;1.17;;;;;;;;;;6125794;23;20048;-46
2023/08/06 06:00:15;;;;;;;5.90;1.10;;;;;;;;;;6114974;23;20013;-43
2023/08/06 06:02:42;;;;;;;7.43;1.10;;;;;;;;;;6127008;23;20025;-43
2023/08/06 06:05:10;;;;;;;5.80;1.20;;;;;;;;;;6119307;23;20620;-42
2023/08/06 06:07:38;;;;;;;5.80;1.60;;;;;;;;;;6153708;23;20018;-42
2023/08/06 06:10:08;;;;;;;5.88;1.40;;;;;;;;;;6121218;23;20014;-44
2023/08/06 06:12:36;;;;;;;6.55;1.00;;;;;;;;;;6126055;23;20041;-45
2023/08/06 06:15:04;;;;;;;4.32;1.00;;;;;;;;;;6122297;23;20524;-42
2023/08/06 06:17:32;;;;;;;4.90;1.00;;;;;;;;;;6127759;23;20089;-45
2023/08/06 06:19:59;;;;;;;4.30;0.80;;;;;;;;;;6120319;23;20017;-42
2023/08/06 06:22:28;;;;;;;5.03;0.98;;;;;;;;;;6125841;23;20030;-42
2023/08/06 06:24:56;;;;;;;8.52;0.95;;;;;;;;;;6119419;23;20017;-43
2023/08/06 06:27:25;;;;;;;6.32;0.90;;;;;;;;;;6130934;23;20039;-43
2023/08/06 06:29:54;;;;;;;5.47;0.90;;;;;;;;;;6120608;23;20084;-42
2023/08/06 06:32:24;;;;;;;4.82;0.80;;;;;;;;;;6118362;23;20055;-42
2023/08/06 06:34:52;;;;;;;5.15;1.35;;;;;;;;;;6127724;23;20025;-43
2023/08/06 06:37:20;;;;;;;5.38;1.45;;;;;;;;;;6121105;23;20072;-43
2023/08/06 06:39:47;;;;;;;4.03;0.70;;;;;;;;;;6130356;23;20061;-42
2023/08/06 06:42:16;;;;;;;5.77;0.90;;;;;;;;;;6123535;23;20435;-42
2023/08/06 06:44:45;;;;;;;4.68;0.88;;;;;;;;;;6123249;23;20083;-43
2023/08/06 06:47:13;;;;;;;5.22;1.17;;;;;;;;;;6121855;23;20025;-42
2023/08/06 06:49:40;;;;;;;7.32;1.95;;;;;;;;;;6129336;23;20018;-42
2023/08/06 06:52:08;;;;;;;3.67;0.93;;;;;;;;;;6120609;23;20059;-43
2023/08/06 06:54:38;;;;;;;4.70;1.20;;;;;;;;;;6122577;23;20017;-43
2023/08/06 06:57:07;;;;;;;4.40;1.10;;;;;;;;;;6103202;23;1166274;-42
2023/08/06 06:59:34;;;;;;;5.55;1.00;;;;;;;;;;6126287;23;20021;-43
2023/08/06 07:02:03;;;;;;;7.15;1.33;;;;;;;;;;6123455;23;20033;-42
2023/08/06 07:04:31;;;;;;;6.57;1.37;;;;;;;;;;6127680;23;20013;-42
2023/08/06 07:06:59;;;;;;;5.40;1.30;;;;;;;;;;6123758;23;20024;-43
2023/08/06 07:09:28;;;;;;;5.63;1.30;;;;;;;;;;6126397;23;20017;-43
2023/08/06 07:11:56;;;;;;;5.72;1.30;;;;;;;;;;6131031;23;20033;-42
2023/08/06 07:14:25;;;;;;;8.02;1.10;;;;;;;;;;6128880;23;20024;-42
2023/08/06 07:16:53;;;;;;;5.87;1.20;;;;;;;;;;6124149;23;20021;-45
2023/08/06 07:19:22;;;;;;;5.75;1.15;;;;;;;;;;6123143;23;20472;-42
2023/08/06 07:21:50;;;;;;;5.45;1.30;;;;;;;;;;6125136;23;20562;-42
2023/08/06 07:24:18;;;;;;;5.03;0.80;;;;;;;;;;6124559;23;20076;-42
2023/08/06 07:26:46;;;;;;;6.53;1.40;;;;;;;;;;6123373;23;20045;-43
2023/08/06 07:29:19;;;;;;;5.00;0.93;;;;;;;;;;6122871;23;20335;-43
2023/08/06 07:31:47;;;;;;;6.13;1.00;;;;;;;;;;6130682;23;20404;-44
2023/08/06 07:34:14;;;;;;;3.92;0.80;;;;;;;;;;6143393;23;20170;-48
2023/08/06 07:36:45;;;;;;;5.28;1.00;;;;;;;;;;6127037;23;20441;-41
2023/08/06 07:39:13;;;;;;;5.05;0.70;;;;;;;;;;6124611;23;20444;-43
2023/08/06 07:41:41;;;;;;;5.73;0.90;;;;;;;;;;6128960;23;20519;-43
2023/08/06 07:44:08;;;;;;;4.05;0.73;;;;;;;;;;6122075;23;20064;-43
2023/08/06 07:46:36;;;;;;;6.20;1.10;;;;;;;;;;6122583;23;20033;-45
2023/08/06 07:49:04;;;;;;;5.47;0.65;;;;;;;;;;6150716;23;20017;-43
2023/08/06 07:51:32;;;;;;;5.03;1.08;;;;;;;;;;6118848;23;20021;-42
2023/08/06 07:54:01;;;;;;;4.63;1.17;;;;;;;;;;6132503;23;20021;-43
2023/08/06 07:56:28;;;;;;;4.05;0.65;;;;;;;;;;6117845;23;20037;-43
2023/08/06 07:58:56;;;;;;;3.83;0.85;;;;;;;;;;6124866;23;20014;-41
2023/08/06 08:01:25;;;;;;;5.65;1.17;;;;;;;;;;6126877;23;20021;-43
2023/08/06 08:03:53;;;;;;;5.72;0.93;;;;;;;;;;6123494;23;20464;-41
2023/08/06 08:06:21;;;;;;;4.50;0.70;;;;;;;;;;6126211;23;20017;-42
2023/08/06 08:08:48;;;;;;;11.85;1.10;;;;;;;;;;6129409;23;20040;-42
2023/08/06 08:11:18;;;;;;;3.60;0.80;;;;;;;;;;6119432;23;20025;-42
2023/08/06 08:13:45;;;;;;;3.83;0.73;;;;;;;;;;6129976;23;20802;-43
2023/08/06 08:16:13;;;;;;;6.13;1.27;;;;;;;;;;6126622;23;20021;-42
2023/08/06 08:18:41;;;;;;;4.70;0.93;;;;;;;;;;6121050;23;20027;-44
2023/08/06 08:21:09;;;;;;;3.83;0.50;;;;;;;;;;6126972;23;20068;-42
2023/08/06 08:23:38;;;;;;;3.75;0.50;;;;;;;;;;6130949;23;20021;-42
2023/08/06 08:26:06;;;;;;;3.80;0.57;;;;;;;;;;6120725;23;20017;-42
2023/08/06 08:28:35;;;;;;;4.10;0.77;;;;;;;;;;6128564;23;20024;-42
2023/08/06 08:31:03;;;;;;;3.77;0.50;;;;;;;;;;6120424;23;20021;-42
2023/08/06 08:33:30;;;;;;;3.28;0.60;;;;;;;;;;6119485;23;20542;-42
2023/08/06 08:35:58;;;;;;;3.70;0.52;;;;;;;;;;6121765;23;20013;-42
2023/08/06 08:38:26;;;;;;;3.28;0.47;;;;;;;;;;6125976;23;20025;-43
2023/08/06 08:40:54;;;;;;;3.17;0.60;;;;;;;;;;6124612;23;20013;-43
2023/08/06 08:43:25;;;;;;;4.07;0.60;;;;;;;;;;6126654;23;20194;-46
2023/08/06 08:45:58;;;;;;;3.30;0.60;;;;;;;;;;6127090;23;20017;-43
2023/08/06 08:48:26;;;;;;;3.78;0.70;;;;;;;;;;6119286;23;20014;-43
2023/08/06 08:50:54;;;;;;;5.85;0.68;;;;;;;;;;6127418;23;20013;-42
2023/08/06 08:53:22;;;;;;;3.20;0.60;;;;;;;;;;6120806;23;20347;-42
2023/08/06 08:55:50;;;;;;;3.83;0.67;;;;;;;;;;6129540;23;20017;-44
2023/08/06 08:58:18;;;;;;;3.40;0.60;;;;;;;;;;6116968;23;20017;-42
2023/08/06 09:00:47;;;;;;;14.73;1.25;;;;;;;;;;6127050;23;20358;-42
2023/08/06 09:03:17;;;;;;;4.13;0.52;;;;;;;;;;6119919;23;20022;-43
2023/08/06 09:05:45;;;;;;;3.55;0.80;;;;;;;;;;6128861;23;20352;-43
2023/08/06 09:08:17;;;;;;;5.23;0.73;;;;;;;;;;6119709;23;20962;-42
2023/08/06 09:10:44;;;;;;;4.07;0.70;;;;;;;;;;6127338;23;20020;-42
2023/08/06 09:13:13;;;;;;;4.07;0.85;;;;;;;;;;6123363;23;20017;-42
2023/08/06 09:15:41;;;;;;;4.03;0.60;;;;;;;;;;6126847;23;20018;-43
2023/08/06 09:18:12;;;;;;;5.78;0.80;;;;;;;;;;6120342;23;20037;-44
2023/08/06 09:20:41;;;;;;;3.60;0.73;;;;;;;;;;6130247;23;20018;-43
2023/08/06 09:23:09;;;;;;;3.17;0.40;;;;;;;;;;6118195;23;20017;-46
2023/08/06 09:25:38;;;;;;;4.05;0.70;;;;;;;;;;6130873;23;20013;-42
2023/08/06 09:28:06;;;;;;;3.75;0.60;;;;;;;;;;6118533;23;20017;-43
2023/08/06 09:30:35;;;;;;;4.35;0.80;;;;;;;;;;6128230;23;20025;-46
2023/08/06 09:33:03;;;;;;;3.37;0.70;;;;;;;;;;6121546;23;20017;-46
2023/08/06 09:35:31;;;;;;;4.38;0.80;;;;;;;;;;6132305;23;20025;-43
2023/08/06 09:38:08;;;;;;;3.35;0.50;;;;;;;;;;6128754;23;20226;-42
2023/08/06 09:40:36;;;;;;;3.15;0.60;;;;;;;;;;6125506;23;20467;-43
2023/08/06 09:43:05;;;;;;;4.68;0.70;;;;;;;;;;6129722;23;20440;-42
2023/08/06 09:45:34;;;;;;;3.23;0.47;;;;;;;;;;6124717;23;20429;-44
2023/08/06 09:48:03;;;;;;;3.38;0.65;;;;;;;;;;6130938;23;20021;-51
2023/08/06 09:50:32;;;;;;;4.32;0.65;;;;;;;;;;6122391;23;20017;-46
2023/08/06 09:53:02;;;;;;;3.75;0.80;;;;;;;;;;6127678;23;20014;-44
2023/08/06 09:55:32;;;;;;;4.72;0.70;;;;;;;;;;6127835;23;20033;-43
2023/08/06 09:58:00;;;;;;;3.07;0.50;;;;;;;;;;6124343;23;20026;-44
2023/08/06 10:00:29;;;;;;;3.30;0.50;;;;;;;;;;6128335;23;20013;-43
2023/08/06 10:03:00;;;;;;;5.75;0.80;;;;;;;;;;6130807;23;20025;-43
2023/08/06 10:05:32;;;;;;;5.07;0.63;;;;;;;;;;6126233;23;20044;-43
2023/08/06 10:08:00;;;;;;;3.30;0.50;;;;;;;;;;6124079;23;20044;-42
2023/08/06 10:10:28;;;;;;;3.20;0.50;;;;;;;;;;6130225;23;20076;-44
2023/08/06 10:12:59;;;;;;;3.00;0.60;;;;;;;;;;6128547;23;20229;-42
2023/08/06 10:15:27;;;;;;;4.47;0.65;;;;;;;;;;6125131;23;20091;-42
2023/08/06 10:17:59;;;;;;;4.00;0.88;;;;;;;;;;6128705;23;20088;-43
2023/08/06 10:20:26;;;;;;;3.92;0.80;;;;;;;;;;6129765;23;20021;-43
2023/08/06 10:23:00;;;;;;;4.97;0.60;;;;;;;;;;6119248;23;20431;-42
2023/08/06 10:25:31;;;;;;;3.30;0.68;;;;;;;;;;6129297;23;20033;-43
2023/08/06 10:28:00;;;;;;;3.05;0.70;;;;;;;;;;6121274;23;20035;-43
2023/08/06 10:30:28;;;;;;;3.20;0.70;;;;;;;;;;6131900;23;20025;-45
2023/08/06 10:33:00;;;;;;;4.60;0.85;;;;;;;;;;6120645;23;20014;-44
2023/08/06 10:35:37;;;;;;;3.20;0.70;;;;;;;;;;6125056;23;20101;-43
2023/08/06 10:38:05;;;;;;;3.42;0.55;;;;;;;;;;6125247;23;20100;-44
2023/08/06 10:40:33;;;;;;;3.35;0.60;;;;;;;;;;6123261;23;20873;-43
2023/08/06 10:43:03;;;;;;;3.30;0.70;;;;;;;;;;6129788;23;20027;-43
2023/08/06 10:45:35;;;;;;;2.40;0.52;;;;;;;;;;6141857;23;20021;-45
2023/08/06 10:48:03;;;;;;;3.47;0.70;;;;;;;;;;6129209;23;20057;-43
2023/08/06 10:50:31;;;;;;;3.58;0.77;;;;;;;;;;6121190;23;20013;-44
2023/08/06 10:53:04;;;;;;;4.72;0.52;;;;;;;;;;6127791;23;20108;-44
2023/08/06 10:55:32;;;;;;;4.80;0.90;;;;;;;;;;6129015;23;20021;-43
2023/08/06 10:58:00;;;;;;;3.45;0.70;;;;;;;;;;6122322;23;20376;-42
2023/08/06 11:00:29;;;;;;;3.53;0.80;;;;;;;;;;6126629;23;20458;-42
2023/08/06 11:02:57;;;;;;;4.07;0.70;;;;;;;;;;6132870;23;20044;-41
2023/08/06 11:05:25;;;;;;;3.92;0.90;;;;;;;;;;6121768;23;20021;-41
2023/08/06 11:07:52;;;;;;;3.20;0.60;;;;;;;;;;6121185;23;20024;-44
2023/08/06 11:10:20;;;;;;;4.55;0.65;;;;;;;;;;6129708;23;20017;-43
2023/08/06 11:12:48;;;;;;;4.20;0.50;;;;;;;;;;6126469;23;20021;-44
2023/08/06 11:15:15;;;;;;;3.40;0.60;;;;;;;;;;6126998;23;20018;-42
2023/08/06 11:17:44;;;;;;;3.22;0.50;;;;;;;;;;6128707;23;20444;-43
2023/08/06 11:20:12;;;;;;;3.47;0.52;;;;;;;;;;6119841;23;20601;-44
2023/08/06 11:22:46;;;;;;;3.67;0.55;;;;;;;;;;6129261;23;20013;-43
2023/08/06 11:25:14;;;;;;;2.97;0.60;;;;;;;;;;6127853;23;20045;-42
2023/08/06 11:27:41;;;;;;;3.35;0.80;;;;;;;;;;6122897;23;20013;-44
2023/08/06 11:30:11;;;;;;;2.75;0.57;;;;;;;;;;6130622;23;20025;-42
2023/08/06 11:32:47;;;;;;;3.60;0.60;;;;;;;;;;6120943;23;20013;-42
2023/08/06 11:35:15;;;;;;;3.30;0.50;;;;;;;;;;6128239;23;20024;-42
2023/08/06 11:37:45;;;;;;;2.37;0.57;;;;;;;;;;6119148;23;20393;-41
2023/08/06 11:40:15;;;;;;;2.20;0.43;;;;;;;;;;6126719;23;20018;-43
2023/08/06 11:42:43;;;;;;;2.70;0.70;;;;;;;;;;6128768;23;20119;-42
2023/08/06 11:45:11;;;;;;;2.47;0.70;;;;;;;;;;6122254;23;20021;-42
2023/08/06 11:47:40;;;;;;;2.75;0.65;;;;;;;;;;6127316;23;20017;-43
2023/08/06 11:50:09;;;;;;;3.67;1.00;;;;;;;;;;6121146;23;20441;-46
2023/08/06 11:52:40;;;;;;;2.90;0.50;;;;;;;;;;6130180;23;20014;-51
2023/08/06 11:55:10;;;;;;;3.42;0.40;;;;;;;;;;6122151;23;20027;-45
2023/08/06 11:57:39;;;;;;;2.58;0.50;;;;;;;;;;6126043;23;20020;-44
2023/08/06 12:00:08;;;;;;;2.65;0.50;;;;;;;;;;6118182;23;20013;-44
2023/08/06 12:02:37;;;;;;;2.77;0.33;;;;;;;;;;6128854;23;20028;-43
2023/08/06 12:05:05;;;;;;;4.13;0.80;;;;;;;;;;6120711;23;20068;-42
2023/08/06 12:07:37;;;;;;;3.13;0.45;;;;;;;;;;6108880;23;20020;-43
2023/08/06 12:10:05;;;;;;;2.80;0.47;;;;;;;;;;6120663;23;20024;-43
2023/08/06 12:12:33;;;;;;;3.08;0.40;;;;;;;;;;6126354;23;20109;-43
2023/08/06 12:15:02;;;;;;;2.70;0.43;;;;;;;;;;6129134;23;20017;-42
2023/08/06 12:17:30;;;;;;;2.60;0.57;;;;;;;;;;6119468;23;20018;-44
2023/08/06 12:19:58;;;;;;;3.13;0.77;;;;;;;;;;6129916;23;20021;-42
2023/08/06 12:22:26;;;;;;;3.38;0.70;;;;;;;;;;6119658;23;20469;-44
2023/08/06 12:24:55;;;;;;;2.80;0.43;;;;;;;;;;6128815;23;20017;-42
2023/08/06 12:27:22;;;;;;;4.73;0.50;;;;;;;;;;6120912;23;20420;-42
2023/08/06 12:29:51;;;;;;;3.42;0.60;;;;;;;;;;6129123;23;20028;-43
2023/08/06 12:32:19;;;;;;;3.33;0.90;;;;;;;;;;6121367;23;20018;-42
2023/08/06 12:34:47;;;;;;;2.42;0.60;;;;;;;;;;6127960;23;20018;-44
2023/08/06 12:37:20;;;;;;;3.30;0.38;;;;;;;;;;6118808;23;20017;-45
2023/08/06 12:39:47;;;;;;;2.30;0.50;;;;;;;;;;6127890;23;20479;-43
2023/08/06 12:42:17;;;;;;;2.95;0.47;;;;;;;;;;6119212;23;20021;-43
2023/08/06 12:44:44;;;;;;;2.58;0.40;;;;;;;;;;6129848;23;20027;-42
2023/08/06 12:47:12;;;;;;;2.30;0.30;;;;;;;;;;6117609;23;20377;-44
2023/08/06 12:49:40;;;;;;;2.22;0.40;;;;;;;;;;6127084;23;20459;-42
2023/08/06 12:52:09;;;;;;;2.43;0.50;;;;;;;;;;6120704;23;20017;-43
2023/08/06 12:54:38;;;;;;;2.63;0.55;;;;;;;;;;6123292;23;20051;-43
2023/08/06 12:57:06;;;;;;;2.63;0.60;;;;;;;;;;6128130;23;20026;-43
2023/08/06 12:59:36;;;;;;;2.92;0.57;;;;;;;;;;6126789;23;20020;-44
2023/08/06 13:02:04;;;;;;;2.60;0.50;;;;;;;;;;6120350;23;20017;-43
2023/08/06 13:04:33;;;;;;;3.73;0.50;;;;;;;;;;6124810;23;20021;-44
2023/08/06 13:07:02;;;;;;;3.42;0.70;;;;;;;;;;6120532;23;20181;-43
2023/08/06 13:09:30;;;;;;;2.60;0.50;;;;;;;;;;6124314;23;20657;-43
2023/08/06 13:12:00;;;;;;;3.55;0.40;;;;;;;;;;6132958;23;20044;-42
2023/08/06 13:14:28;;;;;;;3.45;0.73;;;;;;;;;;6129939;23;20076;-43
2023/08/06 13:16:57;;;;;;;2.83;0.97;;;;;;;;;;6120741;23;20018;-42
2023/08/06 13:19:25;;;;;;;2.95;0.77;;;;;;;;;;6130526;23;20469;-41
2023/08/06 13:21:59;;;;;;;4.20;0.82;;;;;;;;;;6120512;23;20029;-44
2023/08/06 13:24:28;;;;;;;2.97;0.60;;;;;;;;;;6122731;23;20475;-46
2023/08/06 13:26:55;;;;;;;2.35;0.50;;;;;;;;;;6122894;23;20445;-42
2023/08/06 13:29:23;;;;;;;2.90;0.83;;;;;;;;;;6121777;23;20444;-43
2023/08/06 13:31:51;;;;;;;2.53;0.50;;;;;;;;;;6131039;23;20100;-43
2023/08/06 13:34:20;;;;;;;2.90;0.63;;;;;;;;;;6121506;23;20015;-41
2023/08/06 13:36:48;;;;;;;2.20;0.50;;;;;;;;;;6133205;23;20014;-42
2023/08/06 13:39:17;;;;;;;2.70;0.60;;;;;;;;;;6121413;23;20021;-42
2023/08/06 13:41:46;;;;;;;2.87;0.50;;;;;;;;;;6129813;23;20102;-43
2023/08/06 13:44:15;;;;;;;3.03;0.70;;;;;;;;;;6130171;23;20021;-44
2023/08/06 13:46:43;;;;;;;3.00;0.80;;;;;;;;;;6121526;23;20428;-42
2023/08/06 13:49:11;;;;;;;2.42;0.50;;;;;;;;;;6151446;23;20021;-46
2023/08/06 13:51:40;;;;;;;3.15;0.80;;;;;;;;;;6124570;23;20021;-46
2023/08/06 13:54:08;;;;;;;2.87;0.77;;;;;;;;;;6129596;23;20028;-44
2023/08/06 13:56:37;;;;;;;2.78;0.57;;;;;;;;;;6118938;23;20244;-42
2023/08/06 13:59:06;;;;;;;4.07;1.00;;;;;;;;;;6128981;23;20018;-42
2023/08/06 14:01:34;;;;;;;3.20;0.70;;;;;;;;;;6120409;23;20093;-42
2023/08/06 14:04:18;;;;;;;3.90;0.80;;;;;;;;;;6131034;23;20021;-41
2023/08/06 14:06:47;;;;;;;2.73;0.50;;;;;;;;;;6121694;23;20307;-43
2023/08/06 14:09:18;;;;;;;2.22;0.50;;;;;;;;;;6130939;23;20028;-42
2023/08/06 14:11:46;;;;;;;3.65;0.63;;;;;;;;;;6117385;23;20378;-42
2023/08/06 14:14:14;;;;;;;2.50;0.57;;;;;;;;;;6130306;23;20021;-42
2023/08/06 14:16:41;;;;;;;3.10;0.70;;;;;;;;;;6144997;23;20383;-46
2023/08/06 14:19:09;;;;;;;3.33;0.50;;;;;;;;;;6128612;23;20052;-45
2023/08/06 14:21:37;;;;;;;2.85;0.57;;;;;;;;;;6120975;23;20013;-42
2023/08/06 14:24:06;;;;;;;2.25;0.52;;;;;;;;;;6130042;23;20014;-43
2023/08/06 14:26:34;;;;;;;2.50;0.50;;;;;;;;;;6120538;23;20501;-43
2023/08/06 14:29:01;;;;;;;3.17;0.70;;;;;;;;;;6129515;23;20029;-42
2023/08/06 14:31:29;;;;;;;2.47;0.40;;;;;;;;;;6120622;23;20100;-43
2023/08/06 14:33:59;;;;;;;2.65;0.60;;;;;;;;;;6128724;23;20024;-43
2023/08/06 14:36:27;;;;;;;5.00;0.80;;;;;;;;;;6131364;23;20104;-44
2023/08/06 14:38:55;;;;;;;2.75;0.70;;;;;;;;;;6123707;23;20545;-42
2023/08/06 14:41:28;;;;;;;3.72;0.50;;;;;;;;;;6127616;23;20069;-44
2023/08/06 14:43:56;;;;;;;2.97;0.70;;;;;;;;;;6120784;23;20018;-42
2023/08/06 14:46:24;;;;;;;2.40;0.50;;;;;;;;;;6132415;23;20364;-42
2023/08/06 14:48:52;;;;;;;2.95;0.52;;;;;;;;;;6121963;23;20018;-45
2023/08/06 14:51:20;;;;;;;2.75;0.70;;;;;;;;;;6080402;23;20085;-43